Time;durP1;ratioP1;P1;durP2;ratioP2;P2;SDS_P1;SDS_P2;PMS_P1;PMS_P2;Temp;Humidity;BMP_temperature;BMP_pressure;BME280_temperature;BME280_humidity;BME280_pressure;Samples;Min_cycle;Max_cycle;Signal;HPM_P1;HPM_P2
2023/10/20 00:01:33;;;;;;;94.82;47.08;;;;;;;8.08;100.00;97628.44;5031806;28;20036;-81
2023/10/20 00:03:58;;;;;;;100.05;47.38;;;;;;;8.18;100.00;97643.28;5014358;28;20116;-81
2023/10/20 00:06:24;;;;;;;93.18;47.95;;;;;;;8.03;100.00;97602.84;5013537;28;20466;-80
2023/10/20 00:08:49;;;;;;;100.22;45.95;;;;;;;8.17;100.00;97600.13;5032177;28;20056;-81
2023/10/20 00:11:14;;;;;;;95.05;46.10;;;;;;;8.04;100.00;97585.53;5031923;28;20457;-80
2023/10/20 00:13:40;;;;;;;101.38;47.65;;;;;;;7.99;100.00;97585.84;5032009;28;20029;-80
2023/10/20 00:16:06;;;;;;;94.82;45.92;;;;;;;7.90;100.00;97570.94;5032028;28;20108;-80
2023/10/20 00:18:31;;;;;;;90.43;46.92;;;;;;;8.03;100.00;97584.69;5013899;28;20555;-81
2023/10/20 00:20:57;;;;;;;101.88;46.38;;;;;;;7.90;100.00;97565.75;5014323;28;20029;-80
2023/10/20 00:23:23;;;;;;;84.05;45.25;;;;;;;7.93;100.00;97587.09;5031824;28;20064;-80
2023/10/20 00:25:48;;;;;;;86.95;43.15;;;;;;;7.91;100.00;97582.94;5031760;28;20057;-80
2023/10/20 00:28:14;;;;;;;87.88;44.03;;;;;;;8.06;100.00;97604.41;5016577;28;20046;-81
2023/10/20 00:30:40;;;;;;;83.80;44.40;;;;;;;8.13;100.00;97605.63;5012136;28;20462;-81
2023/10/20 00:33:05;;;;;;;84.05;42.72;;;;;;;7.95;100.00;97582.63;5012004;28;20034;-80
2023/10/20 00:35:31;;;;;;;88.35;43.55;;;;;;;7.89;100.00;97569.28;5030821;28;20108;-80
2023/10/20 00:37:57;;;;;;;84.45;42.42;;;;;;;8.16;100.00;97613.19;4970367;28;20142;-81
2023/10/20 00:40:22;;;;;;;89.13;45.05;;;;;;;7.99;100.00;97567.69;4970376;28;20114;-80
2023/10/20 00:42:49;;;;;;;86.38;43.45;;;;;;;8.11;100.00;97589.38;4970510;28;20557;-80
2023/10/20 00:45:15;;;;;;;81.57;42.65;;;;;;;7.95;100.00;97551.53;4970393;28;20594;-80
2023/10/20 00:47:40;;;;;;;91.10;47.08;;;;;;;8.11;100.00;97569.44;4954327;28;20070;-80
2023/10/20 00:50:13;;;;;;;85.55;43.75;;;;;;;8.06;100.00;97583.66;4970686;28;20034;-80
2023/10/20 00:52:41;;;;;;;85.72;44.42;;;;;;;8.12;100.00;97596.19;4970355;28;20050;-80
2023/10/20 00:55:08;;;;;;;100.10;45.65;;;;;;;7.49;100.00;97500.28;4970601;28;20061;-80
2023/10/20 00:57:35;;;;;;;93.03;45.25;;;;;;;7.88;100.00;97558.09;4970292;28;20035;-81
2023/10/20 01:00:03;;;;;;;83.15;41.95;;;;;;;8.09;100.00;97589.47;4970492;28;20094;-81
2023/10/20 01:02:30;;;;;;;88.82;44.80;;;;;;;7.87;100.00;97564.19;4969989;28;20035;-80
2023/10/20 01:04:56;;;;;;;93.10;45.42;;;;;;;7.66;100.00;97526.78;4970501;28;20446;-81
2023/10/20 01:07:22;;;;;;;94.45;43.72;;;;;;;7.91;100.00;97577.75;4970334;28;20075;-81
2023/10/20 01:09:47;;;;;;;98.45;45.95;;;;;;;7.93;100.00;97575.91;5022882;28;20041;-81
2023/10/20 01:12:12;;;;;;;89.15;44.55;;;;;;;7.82;100.00;97581.00;5031936;28;20040;-80
2023/10/20 01:14:38;;;;;;;92.35;42.88;;;;;;;7.71;100.00;97564.44;5013714;28;20488;-80
2023/10/20 01:17:04;;;;;;;93.25;44.53;;;;;;;7.82;100.00;97574.03;5033208;28;20033;-81
2023/10/20 01:19:29;;;;;;;111.45;45.65;;;;;;;7.61;100.00;97537.47;5034849;28;20465;-81
2023/10/20 01:21:54;;;;;;;88.15;43.00;;;;;;;7.78;100.00;97544.09;5035102;28;20449;-81
2023/10/20 01:24:19;;;;;;;95.25;43.60;;;;;;;7.78;100.00;97549.28;5034844;28;20468;-81
2023/10/20 01:26:45;;;;;;;87.40;40.83;;;;;;;7.58;100.00;97537.66;5034902;28;20077;-81
2023/10/20 01:29:12;;;;;;;81.32;41.38;;;;;;;7.72;100.00;97563.50;5034879;28;20465;-81
2023/10/20 01:31:38;;;;;;;94.25;41.92;;;;;;;7.70;100.00;97554.16;5035016;28;20033;-81
2023/10/20 01:34:03;;;;;;;81.20;41.90;;;;;;;7.49;100.00;97512.41;5017274;28;20033;-81
2023/10/20 01:36:29;;;;;;;104.13;43.42;;;;;;;7.47;100.00;97527.22;5034692;28;20074;-81
2023/10/20 01:38:54;;;;;;;88.78;43.13;;;;;;;7.45;100.00;97518.72;5034748;28;20049;-81
2023/10/20 01:41:19;;;;;;;84.85;40.83;;;;;;;7.49;100.00;97541.72;5034420;28;20060;-80
2023/10/20 01:43:45;;;;;;;98.95;44.72;;;;;;;7.48;100.00;97552.19;5034568;28;20022;-81
2023/10/20 01:46:10;;;;;;;96.32;42.78;;;;;;;7.24;100.00;97524.41;5034774;28;20171;-80
2023/10/20 01:48:35;;;;;;;94.78;45.35;;;;;;;7.35;100.00;97539.25;5034541;28;20536;-81
2023/10/20 01:51:01;;;;;;;107.38;44.45;;;;;;;7.35;100.00;97547.00;5034657;28;20071;-81
2023/10/20 01:53:27;;;;;;;88.60;43.58;;;;;;;7.38;100.00;97536.47;5034360;28;20022;-81
2023/10/20 01:55:52;;;;;;;96.57;45.67;;;;;;;7.16;100.00;97487.03;5034496;28;20029;-80
2023/10/20 01:58:19;;;;;;;90.78;42.28;;;;;;;7.41;100.00;97512.91;5016613;28;20072;-81
2023/10/20 02:00:48;;;;;;;90.95;43.45;;;;;;;7.50;100.00;97522.69;5034177;28;20033;-80
2023/10/20 02:03:14;;;;;;;96.30;43.83;;;;;;;7.21;100.00;97503.94;5034425;28;20033;-81
2023/10/20 02:05:39;;;;;;;93.72;44.45;;;;;;;7.14;100.00;97499.25;5034218;28;20029;-81
2023/10/20 02:08:05;;;;;;;101.70;47.30;;;;;;;7.28;100.00;97524.22;5016599;28;20492;-80
2023/10/20 02:10:31;;;;;;;100.38;48.40;;;;;;;7.14;100.00;97505.25;5034006;28;20159;-81
2023/10/20 02:12:56;;;;;;;97.55;44.95;;;;;;;7.19;100.00;97502.38;5034105;28;20029;-81
2023/10/20 02:15:21;;;;;;;110.15;50.42;;;;;;;7.25;100.00;97513.16;5016301;28;20034;-80
2023/10/20 02:17:47;;;;;;;102.97;47.13;;;;;;;7.26;100.00;97501.03;5034471;28;20033;-82
2023/10/20 02:20:15;;;;;;;100.68;47.15;;;;;;;7.33;100.00;97496.25;5034144;28;20030;-80
2023/10/20 02:22:41;;;;;;;95.03;45.35;;;;;;;7.37;100.00;97497.69;5033841;28;20607;-82
2023/10/20 02:25:08;;;;;;;91.28;46.95;;;;;;;7.24;100.00;97464.84;5034046;28;20528;-82
2023/10/20 02:27:34;;;;;;;91.55;45.15;;;;;;;7.34;100.00;97459.91;5015733;28;20478;-81
2023/10/20 02:29:59;;;;;;;88.88;43.80;;;;;;;7.39;100.00;97470.78;5033355;28;20029;-82
2023/10/20 02:32:24;;;;;;;91.55;46.10;;;;;;;7.25;100.00;97455.38;5033729;28;20033;-82
2023/10/20 02:34:49;;;;;;;88.28;44.25;;;;;;;7.39;100.00;97475.13;5034084;28;20483;-82
2023/10/20 02:37:15;;;;;;;89.22;43.42;;;;;;;7.24;100.00;97448.50;5033729;28;20717;-82
2023/10/20 02:39:40;;;;;;;85.75;44.63;;;;;;;7.33;100.00;97442.72;5033539;28;20034;-82
2023/10/20 02:42:06;;;;;;;90.18;43.63;;;;;;;7.49;100.00;97476.97;5033396;28;20057;-82
2023/10/20 02:44:31;;;;;;;94.50;46.05;;;;;;;7.40;100.00;97461.25;5033408;28;20026;-82
2023/10/20 02:46:57;;;;;;;86.50;44.28;;;;;;;7.37;100.00;97451.91;5033722;28;20483;-82
2023/10/20 02:49:23;;;;;;;87.10;45.42;;;;;;;7.59;100.00;97479.78;5033317;28;20022;-82
2023/10/20 02:51:48;;;;;;;94.47;48.70;;;;;;;7.69;100.00;97487.72;5033472;28;20035;-81
2023/10/20 02:54:14;;;;;;;93.68;47.15;;;;;;;7.46;100.00;97459.06;5033349;28;20026;-82
2023/10/20 02:56:39;;;;;;;93.97;45.05;;;;;;;7.50;100.00;97467.47;5033067;28;20025;-82
2023/10/20 02:59:04;;;;;;;90.97;44.75;;;;;;;7.60;100.00;97484.00;5033492;28;20506;-81
2023/10/20 03:01:30;;;;;;;92.10;47.00;;;;;;;7.70;100.00;97482.44;5015189;28;20083;-82
2023/10/20 03:03:57;;;;;;;88.50;44.53;;;;;;;7.69;100.00;97482.53;5015509;28;20068;-81
2023/10/20 03:06:23;;;;;;;100.10;47.58;;;;;;;7.54;100.00;97473.22;5033168;28;20036;-81
2023/10/20 03:08:48;;;;;;;91.60;45.20;;;;;;;7.38;100.00;97452.75;5033007;28;20033;-82
2023/10/20 03:11:14;;;;;;;112.05;50.35;;;;;;;7.39;100.00;97465.59;5032921;28;20484;-82
2023/10/20 03:13:39;;;;;;;104.05;46.95;;;;;;;7.47;100.00;97493.56;5032931;28;20034;-82
2023/10/20 03:16:05;;;;;;;98.63;48.25;;;;;;;7.39;100.00;97475.94;5032885;28;20021;-82
2023/10/20 03:18:31;;;;;;;111.15;51.20;;;;;;;7.28;100.00;97467.25;5032724;28;20100;-82
2023/10/20 03:21:03;;;;;;;95.18;45.22;;;;;;;7.45;100.00;97491.06;5032778;28;20108;-82
2023/10/20 03:23:30;;;;;;;104.85;49.83;;;;;;;7.39;100.00;97477.72;5032489;28;20037;-82
2023/10/20 03:25:56;;;;;;;108.25;49.97;;;;;;;7.37;100.00;97476.97;5032698;28;20036;-82
2023/10/20 03:28:21;;;;;;;104.13;50.97;;;;;;;7.19;100.00;97424.69;5032788;28;20046;-82
2023/10/20 03:30:47;;;;;;;103.38;49.97;;;;;;;7.24;100.00;97428.63;5032403;28;20049;-82
2023/10/20 03:33:13;;;;;;;107.95;48.97;;;;;;;7.35;100.00;97424.47;5012449;28;20064;-82
2023/10/20 03:35:42;;;;;;;96.78;47.50;;;;;;;7.42;100.00;97449.84;5012593;28;20026;-82
2023/10/20 03:38:08;;;;;;;110.75;50.42;;;;;;;7.22;100.00;97427.09;5012841;28;20113;-81
2023/10/20 03:40:37;;;;;;;99.05;48.28;;;;;;;7.38;100.00;97463.13;5012513;28;20152;-82
2023/10/20 03:43:10;;;;;;;101.10;48.47;;;;;;;7.46;100.00;97476.38;5012666;28;20469;-81
2023/10/20 03:45:42;;;;;;;98.50;49.00;;;;;;;7.53;100.00;97487.13;5012519;28;20026;-81
2023/10/20 03:48:09;;;;;;;87.95;45.10;;;;;;;7.57;100.00;97475.63;4995219;28;20075;-81
2023/10/20 03:50:37;;;;;;;99.97;48.97;;;;;;;7.55;100.00;97462.78;4994822;28;20025;-81
2023/10/20 03:53:03;;;;;;;102.85;48.80;;;;;;;7.59;100.00;97473.75;4995163;28;20030;-82
2023/10/20 03:55:29;;;;;;;98.82;47.70;;;;;;;7.58;100.00;97456.53;5012535;28;20513;-81
2023/10/20 03:57:55;;;;;;;95.85;47.25;;;;;;;7.68;100.00;97476.53;5012716;28;20520;-81
2023/10/20 04:00:29;;;;;;;97.82;47.10;;;;;;;7.77;100.00;97489.78;5012473;28;20101;-81
2023/10/20 04:02:56;;;;;;;99.15;48.38;;;;;;;7.75;100.00;97482.09;5012469;28;20392;-81
2023/10/20 04:05:22;;;;;;;97.25;48.47;;;;;;;7.65;100.00;97466.38;4994694;28;20121;-81
2023/10/20 04:07:47;;;;;;;92.32;45.47;;;;;;;7.63;100.00;97455.31;4994639;28;20149;-81
2023/10/20 04:10:14;;;;;;;95.97;47.25;;;;;;;7.64;100.00;97469.91;5012560;28;20036;-81
2023/10/20 04:12:41;;;;;;;84.68;43.45;;;;;;;7.72;100.00;97482.34;4994516;28;20034;-81
2023/10/20 04:15:19;;;;;;;89.80;47.03;;;;;;;7.65;100.00;97470.72;5012374;28;20026;-82
2023/10/20 04:17:51;;;;;;;92.20;47.58;;;;;;;7.58;100.00;97459.97;5012129;28;20030;-81
2023/10/20 04:20:17;;;;;;;;;;;;;;;7.80;100.00;97498.19;5012783;28;20026;-81
2023/10/20 04:22:44;;;;;;;100.90;48.00;;;;;;;7.77;100.00;97489.78;5012007;28;20015;-81
2023/10/20 04:25:13;;;;;;;94.88;45.85;;;;;;;7.45;100.00;97441.03;5012669;28;20026;-81
2023/10/20 04:27:47;;;;;;;89.70;46.30;;;;;;;7.54;100.00;97442.16;5012014;28;20054;-81
2023/10/20 04:47:07;;;;;;;92.15;44.35;;;;;;;7.57;100.00;97475.63;5012086;28;20045;-82
2023/10/20 04:52:54;;;;;;;94.43;45.65;;;;;;;7.40;100.00;97454.28;5013428;28;20044;-82
2023/10/20 04:58:13;;;;;;;120.43;54.45;;;;;;;7.30;100.00;97442.09;5015798;28;20486;-81
2023/10/20 05:00:41;;;;;;;107.88;51.80;;;;;;;7.33;100.00;97447.03;5016072;28;20037;-82
2023/10/20 05:03:15;;;;;;;104.63;49.15;;;;;;;7.46;100.00;97469.44;5015562;28;20026;-82
2023/10/20 05:05:54;;;;;;;103.53;48.05;;;;;;;7.52;100.00;97465.56;5015383;28;20397;-82
2023/10/20 05:08:23;;;;;;;100.90;47.17;;;;;;;6.95;100.00;97362.47;5015704;28;20041;-82
2023/10/20 05:10:49;;;;;;;96.85;44.92;;;;;;;7.37;100.00;97425.19;5015335;28;20022;-82
2023/10/20 05:13:16;;;;;;;89.22;44.85;;;;;;;7.41;100.00;97424.03;5015526;28;20030;-82
2023/10/20 05:15:43;;;;;;;104.97;48.80;;;;;;;7.30;100.00;97409.25;5015193;28;20034;-82
2023/10/20 05:18:11;;;;;;;101.95;45.30;;;;;;;7.36;100.00;97421.78;5015635;28;20442;-82
2023/10/20 05:20:38;;;;;;;94.00;43.88;;;;;;;7.44;100.00;97435.03;5015012;28;20030;-82
2023/10/20 05:23:04;;;;;;;89.72;44.47;;;;;;;7.33;100.00;97414.25;5015145;28;20030;-82
2023/10/20 05:25:29;;;;;;;89.43;43.83;;;;;;;7.41;100.00;97424.88;5015297;28;20030;-82
2023/10/20 05:27:55;;;;;;;104.63;45.60;;;;;;;7.28;100.00;97399.94;4997093;28;20125;-82
2023/10/20 05:30:20;;;;;;;86.07;43.22;;;;;;;7.44;100.00;97427.25;5015174;28;20018;-82
2023/10/20 05:32:46;;;;;;;91.90;44.25;;;;;;;7.44;100.00;97435.03;5014720;28;20087;-82
2023/10/20 05:35:12;;;;;;;92.57;43.78;;;;;;;7.44;100.00;97436.78;5014944;28;20022;-82
2023/10/20 05:37:37;;;;;;;76.85;39.20;;;;;;;7.36;100.00;97433.91;5014822;28;20026;-82
2023/10/20 05:40:03;;;;;;;78.72;39.70;;;;;;;7.21;100.00;97399.53;5015274;28;20406;-82
2023/10/20 05:42:29;;;;;;;90.50;42.28;;;;;;;7.09;100.00;97375.31;5015098;28;20042;-82
2023/10/20 05:47:50;;;;;;;80.90;39.63;;;;;;;7.30;100.00;97424.78;4934743;29;20043;-82
2023/10/20 05:50:15;;;;;;;93.63;44.40;;;;;;;7.40;100.00;97422.38;4935074;29;20039;-82
2023/10/20 05:52:40;;;;;;;85.60;42.28;;;;;;;7.31;100.00;97404.91;4918618;29;20143;-82
2023/10/20 05:55:06;;;;;;;82.03;40.88;;;;;;;7.28;100.00;97389.56;4934937;29;20514;-82
2023/10/20 05:57:31;;;;;;;86.80;42.38;;;;;;;7.46;100.00;97414.22;4934734;29;20032;-82
2023/10/20 06:00:00;;;;;;;77.85;37.90;;;;;;;7.38;100.00;97398.38;4934610;29;20389;-82
2023/10/20 06:02:27;;;;;;;80.25;38.60;;;;;;;7.60;100.00;97426.19;4934603;29;20043;-82
2023/10/20 06:04:52;;;;;;;79.20;38.42;;;;;;;7.22;100.00;97368.34;4933396;29;20036;-81
2023/10/20 06:07:18;;;;;;;84.03;40.90;;;;;;;7.35;100.00;97380.47;4934609;29;20046;-82
2023/10/20 06:09:43;;;;;;;89.53;40.80;;;;;;;7.48;100.00;97407.16;4934405;29;20082;-82
2023/10/20 06:12:10;;;;;;;84.65;39.78;;;;;;;7.32;100.00;97396.19;4934695;29;20455;-82
2023/10/20 06:14:36;;;;;;;86.55;40.72;;;;;;;7.35;100.00;97438.25;4918427;29;20034;-82
2023/10/20 06:17:02;;;;;;;88.80;40.40;;;;;;;7.33;100.00;97437.53;4934449;29;20071;-82
2023/10/20 06:19:28;;;;;;;88.22;42.45;;;;;;;7.06;100.00;97383.28;4934705;29;20502;-82
2023/10/20 06:21:54;;;;;;;88.22;40.92;;;;;;;7.12;100.00;97406.19;4934153;29;20242;-82
2023/10/20 06:24:19;;;;;;;75.75;37.60;;;;;;;6.95;100.00;97376.28;4978045;28;20145;-82
2023/10/20 06:26:47;;;;;;;79.60;38.28;;;;;;;7.23;100.00;97403.66;5013585;28;20528;-82
2023/10/20 06:29:28;;;;;;;83.60;39.40;;;;;;;7.12;100.00;97374.25;5013961;28;20036;-81
2023/10/20 06:34:36;;;;;;;88.60;41.33;;;;;;;7.38;100.00;97401.78;5014076;28;20429;-81
2023/10/20 06:37:28;;;;;;;92.88;42.55;;;;;;;7.46;100.00;97407.28;5013800;28;20113;-81
2023/10/20 06:39:47;;;;;;;85.18;38.83;;;;;;;7.31;100.00;97374.66;5012956;28;20036;-82
2023/10/20 06:42:12;;;;;;;79.25;39.85;;;;;;;7.42;100.00;97399.81;4996393;28;20029;-81
2023/10/20 06:44:38;;;;;;;83.13;39.05;;;;;;;7.47;100.00;97400.31;5013798;28;20105;-81
2023/10/20 06:47:03;;;;;;;80.80;39.13;;;;;;;7.50;100.00;97418.25;5013896;28;20081;-82
2023/10/20 06:49:29;;;;;;;93.53;41.22;;;;;;;7.41;100.00;97391.19;5013802;28;20057;-81
2023/10/20 06:51:54;;;;;;;82.78;38.42;;;;;;;7.48;100.00;97402.78;4995816;28;20524;-81
2023/10/20 06:54:20;;;;;;;82.20;39.60;;;;;;;7.32;100.00;97373.72;5013496;28;20052;-81
2023/10/20 06:56:45;;;;;;;94.80;43.05;;;;;;;7.45;100.00;97379.69;5013273;28;20393;-81
2023/10/20 06:59:13;;;;;;;84.97;41.13;;;;;;;7.31;100.00;97347.94;5013446;28;20386;-82
2023/10/20 07:01:40;;;;;;;75.43;38.45;;;;;;;7.49;100.00;97367.34;5013219;28;20164;-81
2023/10/20 07:04:08;;;;;;;89.45;42.58;;;;;;;7.46;100.00;97365.81;5013792;28;20022;-81
2023/10/20 07:06:34;;;;;;;87.63;40.75;;;;;;;7.41;100.00;97341.16;5013222;28;20026;-82
2023/10/20 07:08:59;;;;;;;88.03;41.45;;;;;;;7.61;100.00;97371.66;5012968;28;20052;-81
2023/10/20 07:11:24;;;;;;;84.45;40.65;;;;;;;7.60;100.00;97364.03;5013353;28;20036;-81
2023/10/20 07:13:50;;;;;;;82.63;40.40;;;;;;;7.67;100.00;97360.06;5013383;28;20030;-81
2023/10/20 07:16:15;;;;;;;92.80;44.05;;;;;;;7.40;100.00;97317.03;5012913;28;20030;-81
2023/10/20 07:18:40;;;;;;;90.70;40.97;;;;;;;7.58;100.00;97363.28;5012884;28;20535;-81
2023/10/20 07:21:06;;;;;;;78.75;37.17;;;;;;;7.40;100.00;97308.44;5012954;28;20105;-81
2023/10/20 07:23:34;;;;;;;99.65;41.20;;;;;;;7.58;100.00;97350.34;5012866;28;20125;-81
2023/10/20 07:26:00;;;;;;;83.10;40.10;;;;;;;7.62;100.00;97350.00;5013042;28;20508;-81
2023/10/20 07:28:25;;;;;;;82.00;38.40;;;;;;;7.63;100.00;97349.09;5012968;28;20129;-81
2023/10/20 07:30:53;;;;;;;92.07;43.85;;;;;;;7.53;100.00;97327.34;5012772;28;20101;-81
2023/10/20 07:33:19;;;;;;;88.13;40.80;;;;;;;7.58;100.00;97324.44;5012851;28;20508;-81
2023/10/20 07:35:45;;;;;;;86.10;41.33;;;;;;;7.61;100.00;97309.50;5012629;28;20049;-82
2023/10/20 07:38:12;;;;;;;88.18;41.55;;;;;;;7.46;100.00;97285.53;5013077;28;20037;-82
2023/10/20 07:40:37;;;;;;;87.03;42.85;;;;;;;7.59;100.00;97305.38;5012908;28;20080;-82
2023/10/20 07:43:06;;;;;;;84.32;39.60;;;;;;;7.82;100.00;97332.22;5012472;28;20389;-82
2023/10/20 07:45:36;;;;;;;84.63;41.78;;;;;;;7.74;100.00;97319.81;5012788;28;20025;-81
2023/10/20 07:48:05;;;;;;;82.28;40.08;;;;;;;7.81;100.00;97318.44;5012428;28;20053;-81
2023/10/20 07:50:30;;;;;;;84.15;38.88;;;;;;;7.77;100.00;97304.03;5018979;28;20026;-82
2023/10/20 07:52:55;;;;;;;76.20;38.90;;;;;;;7.95;100.00;97330.38;5022076;28;20120;-82
2023/10/20 07:55:20;;;;;;;76.75;38.95;;;;;;;7.97;100.00;97329.34;5012603;28;20105;-82
2023/10/20 07:57:46;;;;;;;98.32;48.90;;;;;;;7.92;100.00;97322.81;5012415;28;20026;-82
2023/10/20 08:00:13;;;;;;;82.80;39.70;;;;;;;7.77;100.00;97291.09;5014692;28;20109;-82
2023/10/20 08:02:38;;;;;;;82.95;40.40;;;;;;;7.74;100.00;97281.75;5012133;28;20046;-82
2023/10/20 08:05:05;;;;;;;88.18;42.78;;;;;;;7.83;100.00;97293.22;4994338;28;20080;-82
2023/10/20 08:07:31;;;;;;;83.78;40.05;;;;;;;7.99;100.00;97306.72;5012468;28;20121;-82
2023/10/20 08:09:56;;;;;;;85.88;40.92;;;;;;;7.78;100.00;97272.00;4994210;28;20561;-82
2023/10/20 08:12:21;;;;;;;84.80;40.45;;;;;;;8.05;100.00;97309.78;4994742;28;20029;-82
2023/10/20 08:14:47;;;;;;;86.70;42.42;;;;;;;7.74;100.00;97244.66;4950981;29;20031;-82
2023/10/20 08:17:12;;;;;;;99.43;44.20;;;;;;;7.94;100.00;97276.91;4951542;29;20122;-82
2023/10/20 08:19:37;;;;;;;103.68;48.13;;;;;;;7.86;100.00;97258.50;4951479;29;20047;-82
2023/10/20 08:22:03;;;;;;;99.85;46.47;;;;;;;8.00;100.00;97284.19;4951259;29;20038;-82
2023/10/20 08:24:28;;;;;;;110.85;48.63;;;;;;;7.95;100.00;97266.41;4951813;28;20051;-82
2023/10/20 08:26:53;;;;;;;90.90;45.15;;;;;;;7.98;100.00;97253.22;4958816;28;20684;-82
2023/10/20 08:29:19;;;;;;;89.05;43.65;;;;;;;8.07;100.00;97277.63;4970682;28;20035;-82
2023/10/20 08:31:45;;;;;;;102.93;51.30;;;;;;;7.79;100.00;97242.56;4970485;28;20478;-82
2023/10/20 08:34:10;;;;;;;113.93;57.90;;;;;;;7.82;100.00;97242.34;4970668;28;20043;-82
2023/10/20 08:36:36;;;;;;;101.60;49.42;;;;;;;7.91;100.00;97258.97;4970680;28;20031;-82
2023/10/20 08:39:12;;;;;;;108.25;51.10;;;;;;;7.77;100.00;97238.44;4970409;28;20105;-83
2023/10/20 08:41:40;;;;;;;106.25;49.55;;;;;;;7.97;100.00;97269.72;4961660;28;20250;-84
2023/10/20 08:44:06;;;;;;;101.30;47.95;;;;;;;7.62;100.00;97185.97;4931847;29;20141;-84
2023/10/20 08:46:34;;;;;;;98.68;46.75;;;;;;;7.89;100.00;97216.81;4980707;28;20110;-85
2023/10/20 08:49:02;;;;;;;116.50;55.28;;;;;;;7.73;100.00;97193.78;4991886;28;20105;-85
2023/10/20 08:51:30;;;;;;;114.55;50.60;;;;;;;8.12;100.00;97253.97;4992419;28;20100;-84
2023/10/20 08:53:56;;;;;;;107.43;55.33;;;;;;;8.07;100.00;97249.13;4992064;28;20033;-85
2023/10/20 08:56:22;;;;;;;82.30;43.50;;;;;;;7.91;100.00;97220.91;4992126;28;20023;-85
2023/10/20 08:58:47;;;;;;;90.35;43.90;;;;;;;7.97;100.00;97248.16;4973793;28;20030;-85
2023/10/20 09:01:12;;;;;;;120.55;63.25;;;;;;;8.05;100.00;97240.66;4991521;28;20022;-85
2023/10/20 09:03:40;;;;;;;620.15;395.08;;;;;;;8.03;100.00;97219.19;4991647;28;20033;-84
2023/10/20 09:06:06;;;;;;;107.47;49.70;;;;;;;7.95;100.00;97209.38;4973885;28;20018;-84
2023/10/20 09:08:33;;;;;;;144.60;80.60;;;;;;;7.83;100.00;97189.56;4974236;28;20062;-84
2023/10/20 09:10:58;;;;;;;125.95;66.75;;;;;;;8.21;100.00;97224.75;4973826;28;20568;-84
2023/10/20 09:13:34;;;;;;;119.90;61.20;;;;;;;8.03;100.00;97190.66;4974157;28;20043;-85
2023/10/20 09:16:03;;;;;;;107.43;56.38;;;;;;;8.05;100.00;97183.63;4991058;28;20061;-85
2023/10/20 09:18:31;;;;;;;96.38;50.17;;;;;;;8.12;100.00;97202.09;4973971;28;20521;-85
2023/10/20 09:21:05;;;;;;;101.65;50.05;;;;;;;7.91;100.00;97152.72;4991187;28;20555;-85
2023/10/20 09:23:32;;;;;;;97.00;45.47;;;;;;;8.03;100.00;97179.47;4991497;28;20081;-85
2023/10/20 09:25:58;;;;;;;110.63;51.40;;;;;;;8.11;100.00;97197.88;4991133;28;20030;-84
2023/10/20 09:28:23;;;;;;;103.63;50.50;;;;;;;7.92;100.00;97164.72;4991396;28;20477;-84
2023/10/20 09:30:49;;;;;;;100.00;48.00;;;;;;;7.96;100.00;97179.94;4991316;28;20469;-84
2023/10/20 09:33:15;;;;;;;112.80;52.38;;;;;;;8.11;100.00;97203.88;4973840;28;20122;-85
2023/10/20 09:35:41;;;;;;;103.30;46.25;;;;;;;8.08;100.00;97191.13;4991833;28;20092;-84
2023/10/20 09:38:13;;;;;;;107.53;45.83;;;;;;;7.93;100.00;97176.75;4992755;28;20066;-84
2023/10/20 09:40:52;;;;;;;106.55;52.13;;;;;;;8.03;100.00;97202.81;4977217;28;20037;-84
2023/10/20 09:43:28;;;;;;;114.05;52.28;;;;;;;7.92;100.00;97182.88;4995236;28;20045;-84
2023/10/20 09:46:04;;;;;;;108.28;51.83;;;;;;;7.82;100.00;97174.97;4994372;28;20568;-84
2023/10/20 09:48:32;;;;;;;106.55;50.75;;;;;;;7.84;100.00;97183.47;4994555;28;20057;-84
2023/10/20 09:50:57;;;;;;;105.15;53.22;;;;;;;7.92;100.00;97168.16;4993218;28;20027;-84
2023/10/20 09:53:24;;;;;;;112.50;64.50;;;;;;;8.16;100.00;97190.56;4994437;28;20034;-84
2023/10/20 09:55:49;;;;;;;96.57;47.42;;;;;;;7.99;100.00;97168.50;4994448;28;20370;-84
2023/10/20 09:58:25;;;;;;;96.28;47.42;;;;;;;8.14;100.00;97179.50;4994512;28;20027;-84
2023/10/20 10:00:51;;;;;;;111.68;53.13;;;;;;;8.01;100.00;97153.69;4994454;28;20022;-84
2023/10/20 10:03:30;;;;;;;105.80;50.10;;;;;;;8.16;100.00;97175.00;4976672;28;20040;-84
2023/10/20 10:05:56;;;;;;;110.18;48.20;;;;;;;8.16;100.00;97167.22;4994048;28;20015;-84
2023/10/20 10:08:21;;;;;;;113.28;53.75;;;;;;;8.14;100.00;97161.34;4994366;28;20481;-85
2023/10/20 10:10:48;;;;;;;110.93;55.15;;;;;;;8.21;100.00;97165.09;4994843;28;20034;-85
2023/10/20 10:13:14;;;;;;;125.57;56.80;;;;;;;8.18;100.00;97162.75;4994010;28;20026;-85
2023/10/20 10:15:46;;;;;;;130.43;57.00;;;;;;;8.33;100.00;97169.34;4994069;28;20026;-84
2023/10/20 10:18:13;;;;;;;117.90;54.38;;;;;;;8.17;100.00;97146.34;4992368;28;20121;-85
2023/10/20 10:20:48;;;;;;;107.97;50.10;;;;;;;7.85;100.00;97109.97;4993843;28;20065;-85
2023/10/20 10:23:14;;;;;;;111.20;53.95;;;;;;;8.39;100.00;97168.91;4993602;28;20482;-85
2023/10/20 10:25:46;;;;;;;107.18;48.67;;;;;;;8.32;100.00;97164.28;4976903;28;20068;-85
2023/10/20 10:28:13;;;;;;;99.03;48.22;;;;;;;8.08;100.00;97122.91;4976068;28;20468;-85
2023/10/20 10:30:39;;;;;;;102.88;48.78;;;;;;;8.34;100.00;97147.66;4993842;28;20030;-84
2023/10/20 10:33:08;;;;;;;96.63;47.65;;;;;;;8.25;100.00;97125.84;4975979;28;20041;-84
2023/10/20 10:35:34;;;;;;;108.30;52.35;;;;;;;8.27;100.00;97127.53;4993894;28;20022;-84
2023/10/20 10:37:59;;;;;;;100.30;49.17;;;;;;;8.43;100.00;97156.56;4993733;28;20034;-84
2023/10/20 10:40:25;;;;;;;106.53;50.58;;;;;;;8.27;100.00;97105.00;4976323;28;20045;-84
2023/10/20 10:42:52;;;;;;;100.30;49.58;;;;;;;8.28;100.00;97122.22;4993482;28;20084;-84
2023/10/20 10:45:21;;;;;;;100.32;48.17;;;;;;;8.36;100.00;97152.75;4993405;28;20026;-84
2023/10/20 10:47:47;;;;;;;113.07;55.65;;;;;;;8.34;100.00;97136.47;4993428;28;20066;-84
2023/10/20 10:50:15;;;;;;;117.63;52.78;;;;;;;8.44;100.00;97171.97;4992782;28;20053;-84
2023/10/20 10:52:40;;;;;;;106.82;49.88;;;;;;;8.36;100.00;97166.53;4993668;28;20031;-84
2023/10/20 10:55:06;;;;;;;120.93;60.22;;;;;;;8.19;100.00;97126.34;4993247;28;20053;-84
2023/10/20 10:57:33;;;;;;;110.95;51.22;;;;;;;8.40;100.00;97151.59;4993451;28;20513;-84
2023/10/20 10:59:58;;;;;;;87.05;46.25;;;;;;;8.16;100.00;97117.97;4975405;28;20027;-84
2023/10/20 11:02:24;;;;;;;104.88;50.33;;;;;;;8.53;100.00;97154.06;4993045;28;20038;-84
2023/10/20 11:04:50;;;;;;;113.90;56.17;;;;;;;8.65;100.00;97156.50;4993180;28;20526;-85
2023/10/20 11:07:16;;;;;;;101.53;48.78;;;;;;;8.60;100.00;97145.69;4975519;28;20038;-84
2023/10/20 11:09:41;;;;;;;93.85;48.30;;;;;;;8.46;100.00;97114.78;4975706;28;20023;-84
2023/10/20 11:12:10;;;;;;;99.60;52.00;;;;;;;8.58;100.00;97103.44;4991791;28;20112;-84
2023/10/20 11:14:38;;;;;;;137.57;72.07;;;;;;;8.73;100.00;97107.44;4993119;28;20050;-84
2023/10/20 11:17:04;;;;;;;84.97;50.97;;;;;;;8.88;100.00;97115.75;4993411;28;20422;-84
2023/10/20 11:19:30;;;;;;;91.07;48.70;;;;;;;8.72;100.00;97071.19;4976292;28;20022;-93
2023/10/20 11:21:56;;;;;;;97.45;50.45;;;;;;;9.06;100.00;97103.06;4975556;28;20031;-92
2023/10/20 11:24:31;;;;;;;90.40;44.63;;;;;;;8.88;100.00;97055.22;4975616;28;20065;-92
2023/10/20 11:27:01;;;;;;;84.85;42.53;;;;;;;9.19;100.00;97092.53;4975447;28;20050;-92
2023/10/20 11:29:31;;;;;;;94.35;47.60;;;;;;;8.91;100.00;97053.22;4975374;28;20478;-90
2023/10/20 11:32:00;;;;;;;81.47;43.63;;;;;;;9.14;100.00;97092.91;4975375;28;20504;-91
2023/10/20 11:34:26;;;;;;;90.60;46.28;;;;;;;9.10;100.00;97093.25;4991817;28;20425;-91
2023/10/20 11:36:52;;;;;;;94.97;46.60;;;;;;;9.04;100.00;97070.38;4975272;28;20266;-91
2023/10/20 11:39:18;;;;;;;89.18;45.88;;;;;;;9.19;100.00;97095.94;4991543;28;20081;-91
2023/10/20 11:41:44;;;;;;;98.50;48.15;;;;;;;9.24;100.00;97098.97;4975217;28;20478;-91